Map

Track Data

SID SEASON NUMBER BASIN SUBBASIN NAME ISO_TIME NATURE LAT LON WMO_WIND WMO_PRES WMO_AGENCY TRACK_TYPE DIST2LAND LANDFALL IFLAG USA_AGENCY USA_ATCF_ID USA_LAT USA_LON USA_RECORD USA_STATUS USA_WIND USA_PRES USA_SSHS USA_R34_NE USA_R34_SE USA_R34_SW USA_R34_NW USA_R50_NE USA_R50_SE USA_R50_SW USA_R50_NW USA_R64_NE USA_R64_SE USA_R64_SW USA_R64_NW USA_POCI USA_ROCI USA_RMW USA_EYE TOKYO_LAT TOKYO_LON TOKYO_GRADE TOKYO_WIND TOKYO_PRES TOKYO_R50_DIR TOKYO_R50_LONG TOKYO_R50_SHORT TOKYO_R30_DIR TOKYO_R30_LONG TOKYO_R30_SHORT TOKYO_LAND CMA_LAT CMA_LON CMA_CAT CMA_WIND CMA_PRES HKO_LAT HKO_LON HKO_CAT HKO_WIND HKO_PRES NEWDELHI_LAT NEWDELHI_LON NEWDELHI_GRADE NEWDELHI_WIND NEWDELHI_PRES NEWDELHI_CI NEWDELHI_DP NEWDELHI_POCI REUNION_LAT REUNION_LON REUNION_TYPE REUNION_WIND REUNION_PRES REUNION_TNUM REUNION_CI REUNION_RMW REUNION_R34_NE REUNION_R34_SE REUNION_R34_SW REUNION_R34_NW REUNION_R50_NE REUNION_R50_SE REUNION_R50_SW REUNION_R50_NW REUNION_R64_NE REUNION_R64_SE REUNION_R64_SW REUNION_R64_NW BOM_LAT BOM_LON BOM_TYPE BOM_WIND BOM_PRES BOM_TNUM BOM_CI BOM_RMW BOM_R34_NE BOM_R34_SE BOM_R34_SW BOM_R34_NW BOM_R50_NE BOM_R50_SE BOM_R50_SW BOM_R50_NW BOM_R64_NE BOM_R64_SE BOM_R64_SW BOM_R64_NW BOM_ROCI BOM_POCI BOM_EYE BOM_POS_METHOD BOM_PRES_METHOD NADI_LAT NADI_LON NADI_CAT NADI_WIND NADI_PRES WELLINGTON_LAT WELLINGTON_LON WELLINGTON_WIND WELLINGTON_PRES DS824_LAT DS824_LON DS824_STAGE DS824_WIND DS824_PRES TD9636_LAT TD9636_LON TD9636_STAGE TD9636_WIND TD9636_PRES TD9635_LAT TD9635_LON TD9635_WIND TD9635_PRES TD9635_ROCI NEUMANN_LAT NEUMANN_LON NEUMANN_CLASS NEUMANN_WIND NEUMANN_PRES MLC_LAT MLC_LON MLC_CLASS MLC_WIND MLC_PRES USA_GUST BOM_GUST BOM_GUST_PER REUNION_GUST REUNION_GUST_PER USA_SEAHGT USA_SEARAD_NE USA_SEARAD_SE USA_SEARAD_SW USA_SEARAD_NW STORM_SPEED STORM_DIR
1901255N11332 1901 30 NA NA NOT_NAMED 1901-09-12 00:00:00 TS 11.1000 -28.1000 35 hurdat_atl main 1217 1217 O_____________ hurdat_atl AL091901 11.1000 -28.1000 TS 35 0 5 313
1901255N11332 1901 30 NA NA NOT_NAMED 1901-09-12 03:00:00 TS 11.2800 -28.2950 main 1230 1230 P_____________ AL091901 11.2800 -28.2950 TS 35 0 6 316
1901255N11332 1901 30 NA NA NOT_NAMED 1901-09-12 06:00:00 TS 11.5000 -28.5000 35 hurdat_atl main 1244 1241 O_____________ hurdat_atl AL091901 11.5000 -28.5000 TS 35 0 7 321
1901255N11332 1901 30 NA NA NOT_NAMED 1901-09-12 09:00:00 TS 11.7850 -28.7150 main 1255 1255 P_____________ AL091901 11.7850 -28.7150 TS 35 0 7 327
1901255N11332 1901 30 NA NA NOT_NAMED 1901-09-12 12:00:00 TS 12.1000 -28.9000 35 hurdat_atl main 1267 1264 O_____________ hurdat_atl AL091901 12.1000 -28.9000 TS 35 0 7 335
1901255N11332 1901 30 NA NA NOT_NAMED 1901-09-12 15:00:00 TS 12.4000 -29.0076 main 1270 1267 P_____________ AL091901 12.4000 -29.0076 TS 35 0 6 342
1901255N11332 1901 30 NA NA NOT_NAMED 1901-09-12 18:00:00 TS 12.7000 -29.1000 35 hurdat_atl main 1273 1271 O_____________ hurdat_atl AL091901 12.7000 -29.1000 TS 35 0 7 338
1901255N11332 1901 30 NA NA NOT_NAMED 1901-09-12 21:00:00 TS 13.0075 -29.2574 main 1288 1284 P_____________ AL091901 13.0075 -29.2574 TS 37 0 7 334
1901255N11332 1901 30 NA NA NOT_NAMED 1901-09-13 00:00:00 TS 13.3000 -29.4000 40 hurdat_atl main 1293 1290 O_____________ hurdat_atl AL091901 13.3000 -29.4000 TS 40 0 6 340
1901255N11332 1901 30 NA NA NOT_NAMED 1901-09-13 03:00:00 TS 13.5575 -29.4651 main 1300 1297 P_____________ AL091901 13.5575 -29.4651 TS 40 0 5 349
1901255N11332 1901 30 NA NA NOT_NAMED 1901-09-13 06:00:00 TS 13.8000 -29.5000 40 hurdat_atl main 1297 1295 O_____________ hurdat_atl AL091901 13.8000 -29.5000 TS 40 0 5 350
1901255N11332 1901 30 NA NA NOT_NAMED 1901-09-13 09:00:00 TS 14.0500 -29.5575 main 1305 1303 P_____________ AL091901 14.0500 -29.5575 TS 42 0 5 349
1901255N11332 1901 30 NA NA NOT_NAMED 1901-09-13 12:00:00 TS 14.3000 -29.6000 45 hurdat_atl main 1303 1302 O_____________ hurdat_atl AL091901 14.3000 -29.6000 TS 45 0 5 353
1901255N11332 1901 30 NA NA NOT_NAMED 1901-09-13 15:00:00 TS 14.5500 -29.6075 main 1302 1301 P_____________ AL091901 14.5500 -29.6075 TS 45 0 5 2
1901255N11332 1901 30 NA NA NOT_NAMED 1901-09-13 18:00:00 TS 14.8000 -29.6000 45 hurdat_atl main 1301 1301 O_____________ hurdat_atl AL091901 14.8000 -29.6000 TS 45 0 5 358
1901255N11332 1901 30 NA NA NOT_NAMED 1901-09-13 21:00:00 TS 15.0500 -29.6149 main 1301 1301 P_____________ AL091901 15.0500 -29.6149 TS 47 0 5 358
1901255N11332 1901 30 NA NA NOT_NAMED 1901-09-14 00:00:00 TS 15.3000 -29.6000 50 hurdat_atl main 1301 1291 O_____________ hurdat_atl AL091901 15.3000 -29.6000 TS 50 0 5 11
1901255N11332 1901 30 NA NA NOT_NAMED 1901-09-14 03:00:00 TS 15.5575 -29.5150 main 1292 1282 P_____________ AL091901 15.5575 -29.5150 TS 50 0 5 21
1901255N11332 1901 30 NA NA NOT_NAMED 1901-09-14 06:00:00 TS 15.8000 -29.4000 50 hurdat_atl main 1282 1273 O_____________ hurdat_atl AL091901 15.8000 -29.4000 TS 50 0 5 25
1901255N11332 1901 30 NA NA NOT_NAMED 1901-09-14 09:00:00 TS 16.0075 -29.2925 main 1273 1264 P_____________ AL091901 16.0075 -29.2925 TS 50 0 4 26
1901255N11332 1901 30 NA NA NOT_NAMED 1901-09-14 12:00:00 TS 16.2000 -29.2000 50 hurdat_atl main 1265 1257 O_____________ hurdat_atl AL091901 16.2000 -29.2000 TS 50 0 4 20
1901255N11332 1901 30 NA NA NOT_NAMED 1901-09-14 15:00:00 TS 16.4000 -29.1425 main 1257 1257 P_____________ AL091901 16.4000 -29.1425 TS 50 0 4 13
1901255N11332 1901 30 NA NA NOT_NAMED 1901-09-14 18:00:00 TS 16.6000 -29.1000 50 hurdat_atl main 1260 1253 O_____________ hurdat_atl AL091901 16.6000 -29.1000 TS 50 0 4 13
1901255N11332 1901 30 NA NA NOT_NAMED 1901-09-14 21:00:00 TS 16.8000 -29.0425 main 1253 1253 P_____________ AL091901 16.8000 -29.0425 TS 47 0 4 13
1901255N11332 1901 30 NA NA NOT_NAMED 1901-09-15 00:00:00 TS 17.0000 -29.0000 45 hurdat_atl main 1256 1256 O_____________ hurdat_atl AL091901 17.0000 -29.0000 TS 45 0 4 8
1901255N11332 1901 30 NA NA NOT_NAMED 1901-09-15 03:00:00 TS 17.2000 -28.9775 main 1261 1261 P_____________ AL091901 17.2000 -28.9775 TS 42 0 4 0
1901255N11332 1901 30 NA NA NOT_NAMED 1901-09-15 06:00:00 TS 17.4000 -29.0000 40 hurdat_atl main 1265 1265 O_____________ hurdat_atl AL091901 17.4000 -29.0000 TS 40 0 4 346
1901255N11332 1901 30 NA NA NOT_NAMED 1901-09-15 09:00:00 TS 17.6075 -29.0850 main 1280 1280 P_____________ AL091901 17.6075 -29.0850 TS 37 0 4 335
1901255N11332 1901 30 NA NA NOT_NAMED 1901-09-15 12:00:00 TS 17.8000 -29.2000 35 hurdat_atl main 1296 1296 O_____________ hurdat_atl AL091901 17.8000 -29.2000 TS 35 0 4 332
1901255N11332 1901 30 NA NA NOT_NAMED 1901-09-15 15:00:00 TS 17.9575 -29.2851 main 1312 1312 P_____________ AL091901 17.9575 -29.2851 TS 35 0 4 328
1901255N11332 1901 30 NA NA NOT_NAMED 1901-09-15 18:00:00 TS 18.1000 -29.4000 35 hurdat_atl main 1324 1324 O_____________ hurdat_atl AL091901 18.1000 -29.4000 TS 35 0 4 316
1901255N11332 1901 30 NA NA NOT_NAMED 1901-09-15 21:00:00 TS 18.2575 -29.5850 main 1338 1338 P_____________ AL091901 18.2575 -29.5850 TS 35 0 5 308
1901255N11332 1901 30 NA NA NOT_NAMED 1901-09-16 00:00:00 TS 18.4000 -29.8000 35 hurdat_atl main 1356 1356 O_____________ hurdat_atl AL091901 18.4000 -29.8000 TS 35 0 5 302
1901255N11332 1901 30 NA NA NOT_NAMED 1901-09-16 03:00:00 TS 18.5000 -29.9926 main 1374 1374 P_____________ AL091901 18.5000 -29.9926 TS 35 0 4 298
1901255N11332 1901 30 NA NA NOT_NAMED 1901-09-16 06:00:00 TS 18.6000 -30.2000 35 hurdat_atl main 1392 1392 O_____________ hurdat_atl AL091901 18.6000 -30.2000 TS 35 0 5 299
1901255N11332 1901 30 NA NA NOT_NAMED 1901-09-16 09:00:00 TS 18.7501 -30.4649 main 1419 1419 P_____________ AL091901 18.7501 -30.4649 TS 35 0 6 302
1901255N11332 1901 30 NA NA NOT_NAMED 1901-09-16 12:00:00 TS 18.9000 -30.7000 35 hurdat_atl main 1437 1437 O_____________ hurdat_atl AL091901 18.9000 -30.7000 TS 35 0 4 306
1901255N11332 1901 30 NA NA NOT_NAMED 1901-09-16 15:00:00 TS 18.9999 -30.8226 main 1445 1445 P_____________ AL091901 18.9999 -30.8226 TS 35 0 3 316
1901255N11332 1901 30 NA NA NOT_NAMED 1901-09-16 18:00:00 TS 19.1000 -30.9000 35 hurdat_atl main 1454 1452 O_____________ hurdat_atl AL091901 19.1000 -30.9000 TS 35 0 3 326
1901255N11332 1901 30 NA NA NOT_NAMED 1901-09-16 21:00:00 TS 19.2350 -30.9925 main 1462 1461 P_____________ AL091901 19.2350 -30.9925 TS 35 0 4 328
1901255N11332 1901 30 NA NA NOT_NAMED 1901-09-17 00:00:00 TS 19.4000 -31.1000 35 hurdat_atl main 1469 1468 O_____________ hurdat_atl AL091901 19.4000 -31.1000 TS 35 0 4 326
1901255N11332 1901 30 NA NA NOT_NAMED 1901-09-17 03:00:00 TS 19.5925 -31.2500 main 1476 1476 P_____________ AL091901 19.5925 -31.2500 TS 35 0 5 325
1901255N11332 1901 30 NA NA NOT_NAMED 1901-09-17 06:00:00 TS 19.8000 -31.4000 35 hurdat_atl main 1494 1493 O_____________ hurdat_atl AL091901 19.8000 -31.4000 TS 35 0 5 330
1901255N11332 1901 30 NA NA NOT_NAMED 1901-09-17 09:00:00 TS 19.9849 -31.4927 main 1502 1501 P_____________ AL091901 19.9849 -31.4927 TS 35 0 4 335
1901255N11332 1901 30 NA NA NOT_NAMED 1901-09-17 12:00:00 TS 20.2000 -31.6000 35 hurdat_atl main 1511 1510 O_____________ hurdat_atl AL091901 20.2000 -31.6000 TS 35 0 6 331
1901255N11332 1901 30 NA NA NOT_NAMED 1901-09-17 15:00:00 TS 20.4801 -31.7772 main 1529 1528 P_____________ AL091901 20.4801 -31.7772 TS 32 -1 7 328
1901255N11332 1901 30 NA NA NOT_NAMED 1901-09-17 18:00:00 TS 20.8000 -32.0000 30 hurdat_atl main 1548 O_____________ hurdat_atl AL091901 20.8000 -32.0000 TD 30 -1 8 327

About IBTrACS Database

This database is a web-friendly format of International Best Track Archive for Climate Stewardship (IBTrACS), a global best track data archive curated by NOAA dating back to 1842.

Updated: 2021-11-26